sensor_id;sensor_type;location;lat;lon;timestamp;pressure;altitude;pressure_sealevel;temperature;humidity
46087;BME280;31824;49.648;8.640;2023-02-20T00:02:49;101486.69;;;8.89;100.00
46087;BME280;31824;49.648;8.640;2023-02-20T00:05:51;101482.97;;;8.87;100.00
46087;BME280;31824;49.648;8.640;2023-02-20T00:08:53;101473.81;;;8.84;100.00
46087;BME280;31824;49.648;8.640;2023-02-20T00:11:56;101475.16;;;8.80;100.00
46087;BME280;31824;49.648;8.640;2023-02-20T00:14:57;101472.13;;;8.77;100.00
46087;BME280;31824;49.648;8.640;2023-02-20T00:17:59;101461.69;;;8.70;100.00
46087;BME280;31824;49.648;8.640;2023-02-20T00:21:01;101466.19;;;8.71;100.00
46087;BME280;31824;49.648;8.640;2023-02-20T00:24:03;101463.19;;;8.68;100.00
46087;BME280;31824;49.648;8.640;2023-02-20T00:27:06;101459.44;;;8.66;100.00
46087;BME280;31824;49.648;8.640;2023-02-20T00:30:13;101446.53;;;8.67;100.00
46087;BME280;31824;49.648;8.640;2023-02-20T00:33:15;101447.84;;;8.56;100.00
46087;BME280;31824;49.648;8.640;2023-02-20T00:36:18;101458.34;;;8.49;100.00
46087;BME280;31824;49.648;8.640;2023-02-20T00:39:20;101441.84;;;8.65;100.00
46087;BME280;31824;49.648;8.640;2023-02-20T00:42:23;101452.13;;;8.63;100.00
46087;BME280;31824;49.648;8.640;2023-02-20T00:45:25;101454.94;;;8.43;100.00
46087;BME280;31824;49.648;8.640;2023-02-20T00:48:29;101448.59;;;8.41;100.00
46087;BME280;31824;49.648;8.640;2023-02-20T00:51:50;101444.88;;;8.46;100.00
46087;BME280;31824;49.648;8.640;2023-02-20T00:54:52;101453.28;;;8.22;100.00
46087;BME280;31824;49.648;8.640;2023-02-20T00:57:55;101449.72;;;8.00;100.00
46087;BME280;31824;49.648;8.640;2023-02-20T01:00:57;101445.03;;;7.75;100.00
46087;BME280;31824;49.648;8.640;2023-02-20T01:03:59;101441.25;;;7.59;100.00
46087;BME280;31824;49.648;8.640;2023-02-20T01:07:00;101447.19;;;7.43;100.00
46087;BME280;31824;49.648;8.640;2023-02-20T01:10:03;101439.75;;;7.47;100.00
46087;BME280;31824;49.648;8.640;2023-02-20T01:13:07;101447.34;;;7.38;100.00
46087;BME280;31824;49.648;8.640;2023-02-20T01:16:09;101450.50;;;7.35;100.00
46087;BME280;31824;49.648;8.640;2023-02-20T01:19:12;101451.94;;;7.12;100.00
46087;BME280;31824;49.648;8.640;2023-02-20T01:22:13;101455.09;;;7.09;100.00
46087;BME280;31824;49.648;8.640;2023-02-20T01:25:16;101456.78;;;6.81;100.00
46087;BME280;31824;49.648;8.640;2023-02-20T01:28:19;101448.38;;;6.76;100.00
46087;BME280;31824;49.648;8.640;2023-02-20T01:31:21;101452.06;;;6.71;100.00
46087;BME280;31824;49.648;8.640;2023-02-20T01:34:23;101444.06;;;6.70;100.00
46087;BME280;31824;49.648;8.640;2023-02-20T01:37:25;101448.88;;;6.67;100.00
46087;BME280;31824;49.648;8.640;2023-02-20T01:40:27;101440.16;;;6.73;100.00
46087;BME280;31824;49.648;8.640;2023-02-20T01:43:31;101444.38;;;6.58;100.00
46087;BME280;31824;49.648;8.640;2023-02-20T01:46:46;101452.00;;;6.57;100.00
46087;BME280;31824;49.648;8.640;2023-02-20T01:49:51;101443.63;;;6.59;100.00
46087;BME280;31824;49.648;8.640;2023-02-20T01:53:00;101443.41;;;6.58;100.00
46087;BME280;31824;49.648;8.640;2023-02-20T01:56:06;101439.16;;;6.58;100.00
46087;BME280;31824;49.648;8.640;2023-02-20T01:59:11;101438.94;;;6.57;100.00
46087;BME280;31824;49.648;8.640;2023-02-20T02:02:13;101435.72;;;6.52;100.00
46087;BME280;31824;49.648;8.640;2023-02-20T06:28:43;101409.13;;;5.14;100.00
46087;BME280;31824;49.648;8.640;2023-02-20T06:31:59;101411.00;;;5.02;100.00
46087;BME280;31824;49.648;8.640;2023-02-20T06:35:51;101421.91;;;5.26;100.00
46087;BME280;31824;49.648;8.640;2023-02-20T06:39:12;101412.69;;;5.35;100.00
46087;BME280;31824;49.648;8.640;2023-02-20T06:42:22;101421.44;;;5.35;100.00
46087;BME280;31824;49.648;8.640;2023-02-20T06:51:06;101406.34;;;5.53;100.00
46087;BME280;31824;49.648;8.640;2023-02-20T06:54:26;101398.94;;;5.56;100.00
46087;BME280;31824;49.648;8.640;2023-02-20T06:57:54;101412.59;;;5.61;100.00
46087;BME280;31824;49.648;8.640;2023-02-20T07:01:21;101408.94;;;5.66;100.00
46087;BME280;31824;49.648;8.640;2023-02-20T07:04:46;101413.47;;;5.74;100.00
46087;BME280;31824;49.648;8.640;2023-02-20T07:07:58;101421.56;;;5.83;100.00
46087;BME280;31824;49.648;8.640;2023-02-20T07:11:09;101424.84;;;5.95;100.00
46087;BME280;31824;49.648;8.640;2023-02-20T07:14:24;101419.16;;;6.04;100.00
46087;BME280;31824;49.648;8.640;2023-02-20T07:17:40;101414.34;;;6.07;100.00
46087;BME280;31824;49.648;8.640;2023-02-20T07:20:56;101415.84;;;6.05;100.00
46087;BME280;31824;49.648;8.640;2023-02-20T07:24:53;101418.78;;;6.01;100.00
46087;BME280;31824;49.648;8.640;2023-02-20T07:28:03;101425.94;;;5.97;100.00
46087;BME280;31824;49.648;8.640;2023-02-20T07:31:16;101422.94;;;5.94;100.00
46087;BME280;31824;49.648;8.640;2023-02-20T07:34:33;101428.56;;;5.97;100.00
46087;BME280;31824;49.648;8.640;2023-02-20T07:38:29;101428.78;;;5.98;100.00
46087;BME280;31824;49.648;8.640;2023-02-20T07:46:00;101410.63;;;6.05;100.00
46087;BME280;31824;49.648;8.640;2023-02-20T07:49:14;101411.03;;;6.16;100.00
46087;BME280;31824;49.648;8.640;2023-02-20T07:52:30;101406.59;;;6.15;100.00
46087;BME280;31824;49.648;8.640;2023-02-20T07:55:51;101402.53;;;6.24;100.00
46087;BME280;31824;49.648;8.640;2023-02-20T07:59:03;101410.97;;;6.29;100.00
46087;BME280;31824;49.648;8.640;2023-02-20T08:02:16;101409.31;;;6.36;100.00
46087;BME280;31824;49.648;8.640;2023-02-20T08:05:39;101399.69;;;6.42;100.00
46087;BME280;31824;49.648;8.640;2023-02-20T08:08:57;101396.56;;;6.52;100.00
46087;BME280;31824;49.648;8.640;2023-02-20T08:12:09;101394.56;;;6.57;100.00
46087;BME280;31824;49.648;8.640;2023-02-20T08:15:23;101397.78;;;6.69;100.00
46087;BME280;31824;49.648;8.640;2023-02-20T08:18:43;101400.47;;;6.83;100.00
46087;BME280;31824;49.648;8.640;2023-02-20T08:21:51;101390.47;;;6.93;100.00
46087;BME280;31824;49.648;8.640;2023-02-20T11:45:10;101206.84;;;13.16;100.00
46087;BME280;31824;49.648;8.640;2023-02-20T13:04:31;101099.66;;;15.79;100.00
46087;BME280;31824;49.648;8.640;2023-02-20T14:06:30;101025.44;;;17.53;100.00
46087;BME280;31824;49.648;8.640;2023-02-20T14:58:26;100924.78;;;15.26;100.00
46087;BME280;31824;49.648;8.640;2023-02-20T21:18:14;100893.53;;;9.05;100.00
46087;BME280;31824;49.648;8.640;2023-02-20T21:21:30;100897.34;;;9.00;100.00
46087;BME280;31824;49.648;8.640;2023-02-20T21:25:22;100890.34;;;9.07;100.00
46087;BME280;31824;49.648;8.640;2023-02-20T21:51:33;100893.72;;;8.90;100.00
